createdAt,value
2018-01-30T00:01:22.638Z,5.10
2018-01-30T00:03:50.188Z,5.20
2018-01-30T00:06:17.777Z,5.20
2018-01-30T00:08:45.946Z,5.20
2018-01-30T00:11:13.481Z,5.30
2018-01-30T00:13:41.069Z,5.30
2018-01-30T00:16:08.605Z,5.20
2018-01-30T00:18:36.173Z,5.20
2018-01-30T00:21:03.785Z,5.10
2018-01-30T00:23:45.585Z,5.00
2018-01-30T00:26:13.207Z,5.00
2018-01-30T00:28:40.795Z,4.90
2018-01-30T00:31:08.363Z,4.80
2018-01-30T00:33:36.701Z,4.60
2018-01-30T00:36:04.323Z,4.60
2018-01-30T00:38:31.855Z,4.50
2018-01-30T00:41:00.202Z,4.40
2018-01-30T00:43:34.372Z,4.40
2018-01-30T00:46:01.954Z,4.40
2018-01-30T00:48:29.484Z,4.30
2018-01-30T00:50:57.818Z,4.20
2018-01-30T00:53:26.386Z,4.20
2018-01-30T00:55:54.004Z,4.10
2018-01-30T00:58:22.375Z,4.10
2018-01-30T01:00:50.778Z,4.00
2018-01-30T01:03:19.097Z,4.10
2018-01-30T01:05:46.703Z,4.10
2018-01-30T01:08:14.257Z,4.10
2018-01-30T01:10:41.791Z,4.20
2018-01-30T01:13:12.980Z,4.20
2018-01-30T01:15:41.325Z,4.10
2018-01-30T01:18:08.887Z,4.10
2018-01-30T01:20:36.476Z,4.10
2018-01-30T01:23:05.893Z,4.10
2018-01-30T01:25:34.210Z,4.00
2018-01-30T01:28:01.786Z,4.00
2018-01-30T01:30:29.344Z,3.90
2018-01-30T01:32:58.250Z,3.90
2018-01-30T01:35:26.628Z,3.90
2018-01-30T01:37:54.167Z,3.80
2018-01-30T01:40:21.727Z,3.80
2018-01-30T01:42:50.365Z,3.80
2018-01-30T01:45:17.939Z,3.70
2018-01-30T01:47:46.254Z,3.60
2018-01-30T01:50:13.819Z,3.60
2018-01-30T01:52:42.334Z,3.60
2018-01-30T01:55:09.891Z,3.50
2018-01-30T01:57:37.455Z,3.50
2018-01-30T02:00:05.045Z,3.50
2018-01-30T02:02:35.804Z,3.50
2018-01-30T02:05:03.352Z,3.50
2018-01-30T02:07:31.664Z,3.40
2018-01-30T02:09:59.292Z,3.40
2018-01-30T02:12:27.838Z,3.40
2018-01-30T02:14:56.091Z,3.40
2018-01-30T02:17:23.660Z,3.40
2018-01-30T02:19:51.203Z,3.30
2018-01-30T02:22:18.860Z,3.30
2018-01-30T02:24:46.423Z,3.30
2018-01-30T02:27:14.033Z,3.20
2018-01-30T02:29:41.621Z,3.20
2018-01-30T02:32:09.159Z,3.20
2018-01-30T02:34:37.711Z,3.20
2018-01-30T02:37:05.291Z,3.10
2018-01-30T02:39:32.855Z,3.10
2018-01-30T02:42:00.412Z,3.10
2018-01-30T02:44:29.012Z,3.10
2018-01-30T02:46:56.549Z,3.00
2018-01-30T02:49:24.080Z,3.00
2018-01-30T02:51:51.682Z,3.00
2018-01-30T02:54:19.232Z,3.00
2018-01-30T02:56:46.774Z,3.00
2018-01-30T02:59:14.335Z,3.00
2018-01-30T03:01:42.460Z,3.00
2018-01-30T03:04:10.017Z,3.00
2018-01-30T03:06:37.586Z,3.00
2018-01-30T03:09:05.166Z,3.00
2018-01-30T03:11:32.744Z,3.00
2018-01-30T03:14:01.082Z,3.00
2018-01-30T03:16:28.631Z,2.90
2018-01-30T03:18:56.169Z,3.00
2018-01-30T03:21:23.755Z,2.90
2018-01-30T03:23:52.313Z,3.00
2018-01-30T03:26:19.867Z,3.00
2018-01-30T03:28:47.443Z,3.10
2018-01-30T03:31:15.759Z,3.20
2018-01-30T03:33:46.457Z,3.20
2018-01-30T03:36:14.035Z,3.30
2018-01-30T03:38:41.657Z,3.40
2018-01-30T03:41:09.994Z,3.40
2018-01-30T03:43:45.068Z,3.40
2018-01-30T03:46:13.405Z,3.30
2018-01-30T03:48:41.010Z,3.30
2018-01-30T03:51:08.641Z,3.30
2018-01-30T03:53:37.206Z,3.20
2018-01-30T03:56:04.763Z,3.20
2018-01-30T03:58:32.339Z,3.20
2018-01-30T04:00:59.883Z,3.20
2018-01-30T04:03:28.473Z,3.10
2018-01-30T04:05:56.033Z,3.10
2018-01-30T04:08:23.587Z,3.00
2018-01-30T04:10:51.182Z,3.00
2018-01-30T04:13:18.762Z,3.00
2018-01-30T04:15:46.308Z,3.00
2018-01-30T04:18:13.919Z,3.00
2018-01-30T04:20:41.453Z,3.10
2018-01-30T04:23:09.776Z,3.10
2018-01-30T04:25:37.368Z,3.10
2018-01-30T04:28:04.946Z,3.10
2018-01-30T04:30:33.330Z,3.20
2018-01-30T04:33:00.904Z,3.20
2018-01-30T04:35:28.498Z,3.20
2018-01-30T04:37:56.020Z,3.20
2018-01-30T04:40:23.607Z,3.20
2018-01-30T04:42:51.197Z,3.30
2018-01-30T04:45:18.753Z,3.30
2018-01-30T04:47:46.333Z,3.30
2018-01-30T04:50:13.915Z,3.30
2018-01-30T04:52:55.133Z,3.30
2018-01-30T04:55:22.669Z,3.30
2018-01-30T04:57:50.258Z,3.40
2018-01-30T05:00:18.592Z,3.40
2018-01-30T05:02:46.186Z,3.40
2018-01-30T05:05:14.508Z,3.40
2018-01-30T05:07:42.066Z,3.40
2018-01-30T05:10:09.626Z,3.40
2018-01-30T05:12:38.225Z,3.40
2018-01-30T05:15:05.802Z,3.40
2018-01-30T05:17:35.486Z,3.40
2018-01-30T05:20:03.075Z,3.40
2018-01-30T05:22:30.650Z,3.40
2018-01-30T05:24:58.189Z,3.30
2018-01-30T05:27:25.741Z,3.40
2018-01-30T05:29:53.335Z,3.40
2018-01-30T05:32:20.909Z,3.40
2018-01-30T05:34:48.469Z,3.40
2018-01-30T05:37:16.055Z,3.40
2018-01-30T05:39:43.645Z,3.50
2018-01-30T05:42:11.698Z,3.50
2018-01-30T05:44:42.591Z,3.40
2018-01-30T05:47:11.074Z,3.40
2018-01-30T05:49:38.638Z,3.50
2018-01-30T05:52:06.476Z,3.50
2018-01-30T05:54:34.034Z,3.50
2018-01-30T05:57:01.605Z,3.50
2018-01-30T05:59:29.220Z,3.50
2018-01-30T06:01:57.536Z,3.60
2018-01-30T06:04:28.023Z,3.50
2018-01-30T06:06:56.351Z,3.60
2018-01-30T06:09:23.904Z,3.60
2018-01-30T06:11:51.491Z,3.70
2018-01-30T06:14:20.078Z,3.70
2018-01-30T06:16:47.645Z,3.70
2018-01-30T06:19:15.193Z,3.70
2018-01-30T06:21:42.767Z,3.70
2018-01-30T06:24:10.315Z,3.80
2018-01-30T06:26:37.899Z,3.80
2018-01-30T06:29:05.512Z,3.80
2018-01-30T06:31:33.105Z,3.80
2018-01-30T06:34:00.644Z,3.80
2018-01-30T06:36:28.248Z,3.80
2018-01-30T06:38:55.842Z,3.80
2018-01-30T06:41:23.394Z,3.80
2018-01-30T06:43:51.692Z,3.80
2018-01-30T06:46:19.301Z,3.80
2018-01-30T06:48:46.858Z,3.80
2018-01-30T06:51:14.407Z,3.80
2018-01-30T06:53:42.177Z,3.80
2018-01-30T06:56:09.754Z,3.80
2018-01-30T06:58:37.311Z,3.80
2018-01-30T07:01:05.021Z,3.80
2018-01-30T07:03:33.361Z,3.80
2018-01-30T07:06:00.969Z,3.80
2018-01-30T07:08:29.289Z,3.80
2018-01-30T07:10:56.886Z,3.80
2018-01-30T07:13:35.381Z,3.80
2018-01-30T07:16:02.954Z,3.80
2018-01-30T07:18:31.670Z,3.80
2018-01-30T07:21:00.027Z,3.80
2018-01-30T07:23:27.620Z,3.80
2018-01-30T07:25:55.232Z,3.80
2018-01-30T07:28:22.839Z,3.80
2018-01-30T07:30:51.156Z,3.70
2018-01-30T07:33:18.748Z,3.70
2018-01-30T07:35:46.329Z,3.70
2018-01-30T07:38:13.879Z,3.70
2018-01-30T07:40:41.429Z,3.70
2018-01-30T07:43:11.079Z,3.70
2018-01-30T07:45:39.387Z,3.60
2018-01-30T07:48:06.981Z,3.60
2018-01-30T07:50:34.608Z,3.60
2018-01-30T07:53:05.355Z,3.60
2018-01-30T07:55:34.448Z,3.40
2018-01-30T07:58:01.994Z,3.40
2018-01-30T08:00:29.579Z,3.40
2018-01-30T08:02:59.114Z,3.40
2018-01-30T08:05:26.676Z,3.30
2018-01-30T08:07:54.246Z,3.30
2018-01-30T08:10:21.816Z,3.30
2018-01-30T08:15:45.171Z,3.40
2018-01-30T08:18:12.782Z,3.40
2018-01-30T08:20:41.097Z,3.40
2018-01-30T08:23:14.895Z,3.40
2018-01-30T08:25:42.437Z,3.40
2018-01-30T08:28:10.004Z,3.50
2018-01-30T08:30:37.679Z,3.50
2018-01-30T08:33:12.334Z,3.50
2018-01-30T08:35:40.363Z,3.50
2018-01-30T08:38:08.679Z,3.60
2018-01-30T08:40:36.234Z,3.60
2018-01-30T08:43:04.864Z,3.70
2018-01-30T08:45:32.418Z,3.80
2018-01-30T08:47:59.954Z,3.80
2018-01-30T08:50:27.618Z,3.90
2018-01-30T08:52:59.269Z,4.00
2018-01-30T08:55:27.624Z,4.20
2018-01-30T08:57:57.742Z,4.20
2018-01-30T09:00:25.397Z,4.30
2018-01-30T09:02:54.964Z,4.40
2018-01-30T09:05:23.393Z,4.50
2018-01-30T09:07:50.963Z,4.60
2018-01-30T09:10:18.485Z,4.70
2018-01-30T09:12:46.123Z,4.80
2018-01-30T09:15:13.754Z,4.90
2018-01-30T09:17:41.308Z,5.00
2018-01-30T09:20:08.848Z,5.00
2018-01-30T09:22:39.714Z,5.20
2018-01-30T09:25:10.670Z,5.10
2018-01-30T09:27:39.170Z,5.20
2018-01-30T09:30:06.738Z,5.30
2018-01-30T09:32:39.906Z,5.40
2018-01-30T09:35:07.762Z,5.40
2018-01-30T09:37:35.417Z,5.60
2018-01-30T09:40:03.063Z,5.70
2018-01-30T09:42:30.602Z,5.70
2018-01-30T09:44:58.805Z,5.80
2018-01-30T09:47:27.161Z,5.80
2018-01-30T09:49:57.277Z,5.80
2018-01-30T09:52:42.373Z,5.90
2018-01-30T09:55:11.447Z,6.00
2018-01-30T09:57:38.995Z,6.00
2018-01-30T10:00:06.724Z,6.10
2018-01-30T10:02:34.310Z,6.10
2018-01-30T10:05:01.868Z,6.20
2018-01-30T10:07:31.040Z,6.30
2018-01-30T10:09:58.689Z,6.30
2018-01-30T10:12:31.212Z,6.30
2018-01-30T10:15:01.580Z,6.30
2018-01-30T10:17:29.311Z,6.40
2018-01-30T10:19:56.909Z,6.30
2018-01-30T10:22:25.430Z,6.30
2018-01-30T10:24:52.988Z,6.30
2018-01-30T10:27:20.628Z,6.40
2018-01-30T10:29:49.967Z,6.40
2018-01-30T10:32:18.177Z,6.40
2018-01-30T10:34:45.743Z,6.40
2018-01-30T10:37:14.645Z,6.50
2018-01-30T10:39:42.287Z,6.50
2018-01-30T10:42:09.833Z,6.60
2018-01-30T10:44:39.329Z,6.60
2018-01-30T10:47:06.933Z,6.60
2018-01-30T10:49:34.486Z,6.60
2018-01-30T10:52:02.087Z,6.60
2018-01-30T10:54:30.480Z,6.60
2018-01-30T10:56:58.769Z,6.60
2018-01-30T10:59:26.360Z,6.60
2018-01-30T11:01:53.940Z,6.70
2018-01-30T11:04:28.322Z,6.70
2018-01-30T11:06:55.926Z,6.80
2018-01-30T11:09:23.487Z,6.80
2018-01-30T11:11:51.047Z,6.90
2018-01-30T11:14:33.387Z,6.90
2018-01-30T11:17:01.696Z,7.00
2018-01-30T11:19:30.199Z,7.00
2018-01-30T11:21:57.929Z,7.10
2018-01-30T11:24:28.937Z,7.30
2018-01-30T11:26:56.491Z,7.40
2018-01-30T11:29:24.146Z,7.60
2018-01-30T11:31:52.829Z,7.70
2018-01-30T11:34:22.463Z,7.80
2018-01-30T11:36:50.034Z,7.90
2018-01-30T11:39:17.636Z,8.00
2018-01-30T11:41:45.168Z,7.80
2018-01-30T11:44:13.192Z,7.80
2018-01-30T11:46:40.778Z,7.80
2018-01-30T11:49:08.326Z,7.70
2018-01-30T11:51:35.892Z,7.80
2018-01-30T11:54:04.690Z,7.70
2018-01-30T11:56:33.052Z,7.50
2018-01-30T11:59:00.693Z,7.50
2018-01-30T12:01:28.341Z,7.50
2018-01-30T12:03:57.935Z,7.60
2018-01-30T12:06:25.574Z,7.60
2018-01-30T12:08:53.157Z,7.70
2018-01-30T12:11:20.731Z,7.80
2018-01-30T12:13:49.297Z,7.90
2018-01-30T12:16:17.592Z,7.90
2018-01-30T12:18:45.945Z,7.90
2018-01-30T12:21:13.563Z,7.90
2018-01-30T12:23:49.492Z,7.90
2018-01-30T12:26:17.073Z,7.90
2018-01-30T12:28:45.398Z,7.80
2018-01-30T12:31:12.932Z,7.80
2018-01-30T12:33:43.888Z,7.70
2018-01-30T12:36:11.430Z,7.70
2018-01-30T12:38:38.963Z,7.70
2018-01-30T12:41:06.576Z,7.80
2018-01-30T12:43:34.169Z,7.80
2018-01-30T12:46:01.718Z,7.70
2018-01-30T12:48:29.340Z,7.70
2018-01-30T12:50:57.710Z,7.80
2018-01-30T12:53:26.193Z,7.90
2018-01-30T12:55:53.790Z,8.00
2018-01-30T12:58:21.317Z,8.00
2018-01-30T13:00:48.863Z,7.90
2018-01-30T13:03:16.512Z,8.00
2018-01-30T13:05:44.820Z,8.10
2018-01-30T13:08:13.235Z,8.10
2018-01-30T13:10:40.799Z,8.20
2018-01-30T13:13:08.370Z,8.30
2018-01-30T13:15:35.920Z,8.30
2018-01-30T13:18:03.526Z,8.40
2018-01-30T13:20:31.110Z,8.40
2018-01-30T13:23:10.681Z,8.50
2018-01-30T13:25:38.254Z,8.40
2018-01-30T13:28:05.950Z,8.50
2018-01-30T13:30:33.550Z,8.50
2018-01-30T13:33:03.049Z,8.50
2018-01-30T13:35:30.627Z,8.50
2018-01-30T13:37:58.215Z,8.50
2018-01-30T13:40:25.865Z,8.50
2018-01-30T13:42:54.478Z,8.50
2018-01-30T13:45:22.820Z,8.50
2018-01-30T13:47:51.807Z,8.40
2018-01-30T13:50:20.164Z,8.50
2018-01-30T13:52:48.490Z,8.50
2018-01-30T13:55:16.948Z,8.50
2018-01-30T13:57:44.580Z,8.50
2018-01-30T14:00:12.136Z,8.50
2018-01-30T14:02:41.506Z,8.30
2018-01-30T14:05:09.088Z,8.30
2018-01-30T14:07:37.455Z,8.20
2018-01-30T14:10:05.080Z,8.20
2018-01-30T14:12:32.689Z,8.20
2018-01-30T14:15:01.973Z,8.10
2018-01-30T14:17:29.546Z,8.00
2018-01-30T14:19:57.134Z,8.00
2018-01-30T14:22:25.452Z,7.90
2018-01-30T14:24:53.011Z,7.90
2018-01-30T14:27:20.587Z,7.90
2018-01-30T14:29:48.140Z,7.80
2018-01-30T14:32:15.740Z,7.70
2018-01-30T14:34:44.270Z,7.60
2018-01-30T14:37:11.834Z,7.60
2018-01-30T14:39:39.404Z,7.70
2018-01-30T14:42:06.998Z,7.70
2018-01-30T14:44:34.618Z,7.60
2018-01-30T14:47:02.152Z,7.70
2018-01-30T14:49:29.732Z,7.60
2018-01-30T14:51:57.375Z,7.60
2018-01-30T14:54:31.829Z,7.50
2018-01-30T14:56:59.391Z,7.50
2018-01-30T14:59:26.976Z,7.50
2018-01-30T15:01:54.601Z,7.50
2018-01-30T15:04:29.892Z,7.50
2018-01-30T15:06:57.357Z,7.50
2018-01-30T15:09:24.985Z,7.50
2018-01-30T15:11:52.584Z,7.50
2018-01-30T15:14:21.210Z,7.60
2018-01-30T15:16:49.515Z,7.60
2018-01-30T15:19:17.115Z,7.60
2018-01-30T15:21:44.674Z,7.60
2018-01-30T15:24:17.228Z,7.50
2018-01-30T15:26:44.790Z,7.40
2018-01-30T15:29:12.342Z,7.40
2018-01-30T15:31:39.954Z,7.30
2018-01-30T15:34:15.464Z,7.20
2018-01-30T15:36:43.102Z,7.20
2018-01-30T15:39:10.650Z,7.10
2018-01-30T15:41:38.232Z,7.00
2018-01-30T15:44:06.599Z,7.00
2018-01-30T15:46:34.150Z,7.00
2018-01-30T15:49:01.744Z,6.90
2018-01-30T15:51:29.311Z,6.80
2018-01-30T15:53:56.908Z,6.70
2018-01-30T15:56:25.167Z,6.60
2018-01-30T15:58:52.744Z,6.50
2018-01-30T16:01:20.288Z,6.50
2018-01-30T16:04:04.445Z,6.40
2018-01-30T16:06:31.986Z,6.30
2018-01-30T16:08:59.550Z,6.20
2018-01-30T16:11:27.992Z,6.10
2018-01-30T16:14:00.414Z,6.00
2018-01-30T16:16:28.110Z,5.90
2018-01-30T16:18:55.709Z,5.90
2018-01-30T16:21:23.392Z,5.80
2018-01-30T16:23:52.939Z,5.70
2018-01-30T16:26:20.590Z,5.70
2018-01-30T16:28:48.153Z,5.60
2018-01-30T16:31:15.783Z,5.50
2018-01-30T16:33:45.097Z,5.40
2018-01-30T16:36:12.753Z,5.30
2018-01-30T16:38:40.397Z,5.30
2018-01-30T16:41:08.002Z,5.20
2018-01-30T16:43:35.580Z,5.10
2018-01-30T16:46:03.163Z,5.00
2018-01-30T16:48:31.526Z,4.80
2018-01-30T16:50:59.071Z,4.80
2018-01-30T16:53:28.724Z,4.80
2018-01-30T16:55:57.074Z,4.60
2018-01-30T16:58:24.662Z,4.60
2018-01-30T17:00:53.761Z,4.50
2018-01-30T17:03:22.632Z,4.40
2018-01-30T17:05:50.232Z,4.40
2018-01-30T17:08:17.879Z,4.30
2018-01-30T17:10:46.302Z,4.20
2018-01-30T17:13:14.931Z,4.20
2018-01-30T17:15:42.524Z,4.10
2018-01-30T17:18:10.069Z,4.10
2018-01-30T17:20:38.513Z,3.90
2018-01-30T17:23:14.098Z,4.00
2018-01-30T17:25:41.688Z,3.90
2018-01-30T17:28:09.258Z,3.90
2018-01-30T17:30:37.643Z,3.80
2018-01-30T17:33:05.244Z,3.80
2018-01-30T17:35:32.820Z,3.70
2018-01-30T17:38:00.367Z,3.70
2018-01-30T17:40:27.966Z,3.60
2018-01-30T17:42:56.473Z,3.60
2018-01-30T17:45:24.802Z,3.60
2018-01-30T17:47:52.425Z,3.50
2018-01-30T17:50:19.999Z,3.50
2018-01-30T17:52:47.622Z,3.50
2018-01-30T17:55:16.001Z,3.40
2018-01-30T17:57:43.565Z,3.40
2018-01-30T18:00:11.139Z,3.30
2018-01-30T18:02:38.704Z,3.30
2018-01-30T18:05:06.275Z,3.30
2018-01-30T18:07:34.517Z,3.20
2018-01-30T18:10:02.100Z,3.20
2018-01-30T18:12:29.678Z,3.20
2018-01-30T18:14:57.256Z,3.10
2018-01-30T18:17:25.656Z,3.10
2018-01-30T19:06:01.686Z,2.60
2018-01-30T19:08:30.048Z,2.70
2018-01-30T19:10:57.672Z,2.70
2018-01-30T19:13:25.214Z,2.70
2018-01-30T19:15:52.756Z,2.70
2018-01-30T19:18:20.316Z,2.80
2018-01-30T19:20:49.351Z,2.80
2018-01-30T19:23:16.913Z,2.80
2018-01-30T19:25:44.531Z,2.90
2018-01-30T19:28:12.649Z,2.80
2018-01-30T19:30:40.227Z,2.80
2018-01-30T19:33:07.797Z,2.90
2018-01-30T19:35:37.376Z,2.90
2018-01-30T19:38:04.966Z,3.00
2018-01-30T19:40:32.584Z,3.00
2018-01-30T19:43:00.184Z,3.00
2018-01-30T19:45:37.674Z,3.10
2018-01-30T19:48:06.834Z,3.20
2018-01-30T19:50:34.410Z,3.20
2018-01-30T19:53:02.118Z,3.30
2018-01-30T19:55:39.862Z,3.40
2018-01-30T19:58:07.527Z,3.30
2018-01-30T20:00:35.090Z,3.40
2018-01-30T20:03:02.662Z,3.50
2018-01-30T20:05:30.230Z,3.60
2018-01-30T20:07:57.793Z,3.60
2018-01-30T20:10:25.347Z,3.70
2018-01-30T20:12:53.535Z,3.80
2018-01-30T20:15:23.029Z,3.80
2018-01-30T20:17:50.585Z,3.80
2018-01-30T20:20:18.744Z,3.90
2018-01-30T20:22:47.063Z,3.90
2018-01-30T20:25:14.653Z,3.90
2018-01-30T20:27:42.272Z,4.00
2018-01-30T20:30:09.854Z,4.00
2018-01-30T20:32:37.432Z,4.00
2018-01-30T20:35:05.069Z,4.00
2018-01-30T20:37:32.654Z,4.00
2018-01-30T20:40:00.424Z,4.10
2018-01-30T20:42:28.052Z,4.10
2018-01-30T20:44:55.653Z,4.00
2018-01-30T20:47:23.280Z,4.00
2018-01-30T20:49:50.856Z,4.10
2018-01-30T20:52:18.407Z,4.10
2018-01-30T20:54:48.085Z,4.00
2018-01-30T20:57:16.451Z,4.00
2018-01-30T20:59:44.643Z,4.00
2018-01-30T21:02:13.026Z,4.00
2018-01-30T21:04:43.314Z,3.90
2018-01-30T21:07:11.711Z,3.90
2018-01-30T21:09:41.248Z,3.90
2018-01-30T21:12:08.844Z,3.80
2018-01-30T21:14:37.310Z,3.80
2018-01-30T21:17:06.434Z,3.70
2018-01-30T21:19:33.974Z,3.70
2018-01-30T21:22:01.549Z,3.70
2018-01-30T21:24:29.176Z,3.70
2018-01-30T21:26:57.594Z,3.70
2018-01-30T21:29:25.153Z,3.70
2018-01-30T21:31:52.735Z,3.70
2018-01-30T21:34:20.295Z,3.70
2018-01-30T21:36:47.876Z,3.70
2018-01-30T21:39:15.927Z,3.70
2018-01-30T21:41:43.593Z,3.70
2018-01-30T21:44:11.202Z,3.60
2018-01-30T21:46:41.935Z,3.60
2018-01-30T21:49:09.454Z,3.60
2018-01-30T21:51:37.054Z,3.60
2018-01-30T21:54:06.145Z,3.60
2018-01-30T21:56:34.703Z,3.60
2018-01-30T21:59:02.288Z,3.60
2018-01-30T22:01:30.672Z,3.60
2018-01-30T22:03:59.976Z,3.60
2018-01-30T22:06:28.297Z,3.60
2018-01-30T22:08:55.968Z,3.60
2018-01-30T22:11:26.398Z,3.60
2018-01-30T22:13:54.801Z,3.60
2018-01-30T22:16:22.404Z,3.60
2018-01-30T22:18:50.807Z,3.70
2018-01-30T22:21:18.615Z,3.80
2018-01-30T22:23:46.543Z,3.90
2018-01-30T22:26:16.121Z,4.00
2018-01-30T22:28:43.714Z,4.00
2018-01-30T22:31:11.289Z,4.00
2018-01-30T22:33:38.864Z,4.00
2018-01-30T22:36:06.465Z,4.00
2018-01-30T22:38:34.815Z,4.10
2018-01-30T22:41:02.398Z,4.00
2018-01-30T22:43:29.958Z,4.10
2018-01-30T22:45:58.520Z,4.10
